createdAt,value
2023-05-19T00:01:43.983Z,17.87
2023-05-19T00:06:42.610Z,17.83
2023-05-19T00:09:11.012Z,17.81
2023-05-19T00:11:40.051Z,17.78
2023-05-19T00:14:09.545Z,17.73
2023-05-19T00:16:37.925Z,17.68
2023-05-19T00:19:06.709Z,17.64
2023-05-19T00:21:34.681Z,17.61
2023-05-19T00:24:03.989Z,17.55
2023-05-19T00:26:31.886Z,17.49
2023-05-19T00:28:59.762Z,17.46
2023-05-19T00:31:27.768Z,17.44
2023-05-19T00:33:55.755Z,17.42
2023-05-19T00:36:23.771Z,17.43
2023-05-19T00:38:51.960Z,17.44
2023-05-19T00:41:21.262Z,17.42
2023-05-19T00:43:49.201Z,17.41
2023-05-19T00:46:17.251Z,17.40
2023-05-19T00:48:45.707Z,17.39
2023-05-19T00:51:16.724Z,17.34
2023-05-19T00:53:48.563Z,17.35
2023-05-19T00:56:17.045Z,17.30
2023-05-19T00:58:46.519Z,17.28
2023-05-19T01:01:14.695Z,17.22
2023-05-19T01:03:43.177Z,17.18
2023-05-19T01:06:12.343Z,17.13
2023-05-19T01:08:40.436Z,17.07
2023-05-19T01:11:08.623Z,17.03
2023-05-19T01:13:36.790Z,17.03
2023-05-19T01:16:08.963Z,17.04
2023-05-19T01:18:57.949Z,17.02
2023-05-19T01:22:02.124Z,17.02
2023-05-19T01:25:07.033Z,17.02
2023-05-19T01:27:47.154Z,16.98
2023-05-19T01:30:30.444Z,16.95
2023-05-19T01:33:00.587Z,16.89
2023-05-19T01:35:28.660Z,16.86
2023-05-19T01:37:57.242Z,16.83
2023-05-19T01:40:25.354Z,16.82
2023-05-19T01:42:56.648Z,16.78
2023-05-19T01:45:27.297Z,16.83
2023-05-19T01:47:57.151Z,16.84
2023-05-19T01:50:25.161Z,16.79
2023-05-19T01:52:53.145Z,16.75
2023-05-19T01:55:21.281Z,16.70
2023-05-19T01:57:54.544Z,16.64
2023-05-19T02:00:27.042Z,16.58
2023-05-19T02:02:59.139Z,16.53
2023-05-19T02:05:32.954Z,16.49
2023-05-19T02:08:07.633Z,16.46
2023-05-19T02:10:35.494Z,16.44
2023-05-19T02:13:05.583Z,16.40
2023-05-19T02:15:38.693Z,16.39
2023-05-19T02:18:07.003Z,16.30
2023-05-19T02:20:35.128Z,16.33
2023-05-19T02:23:03.249Z,16.26
2023-05-19T02:25:31.706Z,16.20
2023-05-19T02:27:59.754Z,16.12
2023-05-19T02:30:27.913Z,16.10
2023-05-19T02:32:57.223Z,16.09
2023-05-19T02:35:25.245Z,16.09
2023-05-19T02:37:54.110Z,16.09
2023-05-19T02:40:22.334Z,16.08
2023-05-19T02:42:50.357Z,16.02
2023-05-19T02:45:18.323Z,15.91
2023-05-19T02:47:46.355Z,15.88
2023-05-19T02:50:15.745Z,15.84
2023-05-19T02:52:43.635Z,15.82
2023-05-19T02:55:17.203Z,15.81
2023-05-19T02:57:45.219Z,15.81
2023-05-19T03:00:14.040Z,15.78
2023-05-19T03:02:44.089Z,15.75
2023-05-19T03:05:12.298Z,15.71
2023-05-19T03:07:41.581Z,15.70
2023-05-19T03:10:10.505Z,15.70
2023-05-19T03:12:38.436Z,15.70
2023-05-19T03:15:07.266Z,15.65
2023-05-19T03:17:36.450Z,15.58
2023-05-19T03:20:05.830Z,15.59
2023-05-19T03:22:34.135Z,15.60
2023-05-19T03:25:03.498Z,15.56
2023-05-19T03:27:31.477Z,15.54
2023-05-19T03:29:59.403Z,15.52
2023-05-19T03:32:27.497Z,15.48
2023-05-19T03:34:55.494Z,15.46
2023-05-19T03:37:23.373Z,15.45
2023-05-19T03:39:51.301Z,15.41
2023-05-19T03:42:20.614Z,15.36
2023-05-19T03:44:48.570Z,15.31
2023-05-19T03:47:16.446Z,15.27
2023-05-19T03:49:44.396Z,15.25
2023-05-19T03:52:12.694Z,15.23
2023-05-19T03:54:42.664Z,15.20
2023-05-19T03:57:11.047Z,15.18
2023-05-19T03:59:41.422Z,15.17
2023-05-19T04:02:09.506Z,15.19
2023-05-19T04:04:38.516Z,15.19
2023-05-19T04:07:07.210Z,15.22
2023-05-19T04:09:35.576Z,15.23
2023-05-19T04:12:03.803Z,15.20
2023-05-19T04:14:31.716Z,15.13
2023-05-19T04:17:01.039Z,15.09
2023-05-19T04:19:29.137Z,15.09
2023-05-19T04:21:57.158Z,15.10
2023-05-19T04:24:25.076Z,15.12
2023-05-19T04:26:53.328Z,15.13
2023-05-19T04:29:23.469Z,15.12
2023-05-19T04:31:52.777Z,15.11
2023-05-19T04:34:22.096Z,15.08
2023-05-19T04:36:53.143Z,15.05
2023-05-19T04:39:21.651Z,15.04
2023-05-19T04:41:49.582Z,15.03
2023-05-19T04:44:18.547Z,15.04
2023-05-19T04:46:46.518Z,15.06
2023-05-19T04:49:14.569Z,15.08
2023-05-19T04:51:46.179Z,15.12
2023-05-19T04:54:14.110Z,15.06
2023-05-19T04:56:42.144Z,15.03
2023-05-19T04:59:10.149Z,15.00
2023-05-19T05:01:41.496Z,14.96
2023-05-19T05:04:09.484Z,14.93
2023-05-19T05:06:40.585Z,14.90
2023-05-19T05:09:10.562Z,14.90
2023-05-19T05:11:38.991Z,14.91
2023-05-19T05:14:07.348Z,14.92
2023-05-19T05:16:36.145Z,14.96
2023-05-19T05:19:04.553Z,15.03
2023-05-19T05:21:32.971Z,15.14
2023-05-19T05:24:01.354Z,15.24
2023-05-19T05:26:32.004Z,15.34
2023-05-19T05:28:59.901Z,15.40
2023-05-19T05:31:27.919Z,15.49
2023-05-19T05:33:55.982Z,15.52
2023-05-19T05:36:23.928Z,15.55
2023-05-19T05:38:51.910Z,15.59
2023-05-19T05:41:19.927Z,15.68
2023-05-19T05:43:49.213Z,15.77
2023-05-19T05:46:17.978Z,15.81
2023-05-19T05:48:46.503Z,15.82
2023-05-19T05:51:14.873Z,15.86
2023-05-19T05:53:44.374Z,15.93
2023-05-19T05:56:13.790Z,15.98
2023-05-19T05:58:41.738Z,16.05
2023-05-19T06:01:11.655Z,16.11
2023-05-19T06:03:42.516Z,16.21
2023-05-19T06:06:10.475Z,16.31
2023-05-19T06:08:38.432Z,16.44
2023-05-19T06:11:08.825Z,16.52
2023-05-19T06:13:36.881Z,16.64
2023-05-19T06:16:05.199Z,16.79
2023-05-19T06:18:34.576Z,16.90
2023-05-19T06:21:03.356Z,16.99
2023-05-19T06:23:31.670Z,17.12
2023-05-19T06:25:59.703Z,17.25
2023-05-19T06:28:27.623Z,17.38
2023-05-19T06:30:55.553Z,17.49
2023-05-19T06:33:23.486Z,17.63
2023-05-19T06:35:52.835Z,17.72
2023-05-19T06:38:20.798Z,17.80
2023-05-19T06:40:49.311Z,17.73
2023-05-19T06:43:17.867Z,17.88
2023-05-19T06:45:46.204Z,17.91
2023-05-19T06:48:14.232Z,17.91
2023-05-19T06:50:42.180Z,17.92
2023-05-19T06:53:11.479Z,17.99
2023-05-19T06:55:54.382Z,18.11
2023-05-19T06:58:26.814Z,18.23
2023-05-19T07:00:54.831Z,18.32
2023-05-19T07:03:22.880Z,18.45
2023-05-19T07:05:51.102Z,18.50
2023-05-19T07:08:20.916Z,18.50
2023-05-19T07:10:48.841Z,18.56
2023-05-19T07:13:16.898Z,18.57
2023-05-19T07:15:44.847Z,18.56
2023-05-19T07:18:12.940Z,18.61
2023-05-19T07:20:40.962Z,18.64
2023-05-19T07:23:08.955Z,18.70
2023-05-19T07:25:38.264Z,18.72
2023-05-19T07:28:06.399Z,18.77
2023-05-19T07:30:34.468Z,18.81
2023-05-19T07:33:02.704Z,18.89
2023-05-19T07:35:30.828Z,18.91
2023-05-19T07:37:58.759Z,18.93
2023-05-19T07:40:26.704Z,18.95
2023-05-19T07:42:56.027Z,18.93
2023-05-19T07:45:23.943Z,18.95
2023-05-19T07:47:52.671Z,19.17
2023-05-19T07:50:20.665Z,19.28
2023-05-19T07:52:48.643Z,19.38
2023-05-19T07:55:18.001Z,19.49
2023-05-19T07:57:46.004Z,19.58
2023-05-19T08:00:16.630Z,19.69
2023-05-19T08:02:44.716Z,19.77
2023-05-19T08:05:12.718Z,19.86
2023-05-19T08:07:40.675Z,19.95
2023-05-19T08:10:09.387Z,20.02
2023-05-19T08:12:37.278Z,20.09
2023-05-19T08:15:05.930Z,20.14
2023-05-19T08:17:35.269Z,20.22
2023-05-19T08:20:05.094Z,20.33
2023-05-19T08:22:33.098Z,20.49
2023-05-19T08:25:01.453Z,20.57
2023-05-19T08:27:30.048Z,20.59
2023-05-19T08:29:57.949Z,20.61
2023-05-19T08:32:25.898Z,20.66
2023-05-19T08:34:55.230Z,20.71
2023-05-19T08:37:23.106Z,20.80
2023-05-19T08:39:51.011Z,20.85
2023-05-19T08:42:18.952Z,20.90
2023-05-19T08:44:46.861Z,20.99
2023-05-19T08:47:14.788Z,21.09
2023-05-19T08:49:45.342Z,21.17
2023-05-19T08:52:21.058Z,21.29
2023-05-19T08:54:52.649Z,21.45
2023-05-19T08:57:20.587Z,21.46
2023-05-19T08:59:49.028Z,21.42
2023-05-19T09:02:16.998Z,21.44
2023-05-19T09:04:46.180Z,21.45
2023-05-19T09:07:14.704Z,21.34
2023-05-19T09:09:44.239Z,21.49
2023-05-19T09:12:12.399Z,21.58
2023-05-19T09:14:40.432Z,21.64
2023-05-19T09:17:08.479Z,21.73
2023-05-19T09:19:36.496Z,21.82
2023-05-19T09:22:04.820Z,21.85
2023-05-19T09:24:32.897Z,21.92
2023-05-19T09:27:02.284Z,22.02
2023-05-19T09:29:30.215Z,22.15
2023-05-19T09:32:01.024Z,22.26
2023-05-19T09:34:29.117Z,22.33
2023-05-19T09:36:58.071Z,22.40
2023-05-19T09:39:26.356Z,22.47
2023-05-19T09:41:54.789Z,22.50
2023-05-19T09:44:29.383Z,22.55
2023-05-19T09:46:59.873Z,22.68
2023-05-19T09:49:29.596Z,22.81
2023-05-19T09:51:57.830Z,22.94
2023-05-19T09:54:27.494Z,23.06
2023-05-19T09:56:59.836Z,23.23
2023-05-19T09:59:32.307Z,23.41
2023-05-19T10:02:02.287Z,23.56
2023-05-19T10:04:31.007Z,23.67
2023-05-19T10:07:00.458Z,23.75
2023-05-19T10:09:29.789Z,23.87
2023-05-19T10:11:58.682Z,24.02
2023-05-19T10:14:27.691Z,24.09
2023-05-19T10:16:58.156Z,24.24
2023-05-19T10:19:26.776Z,24.32
2023-05-19T10:21:54.923Z,24.35
2023-05-19T10:24:23.061Z,24.33
2023-05-19T10:26:52.901Z,24.34
2023-05-19T10:29:22.327Z,24.45
2023-05-19T10:31:50.260Z,24.58
2023-05-19T10:34:30.239Z,24.69
2023-05-19T10:37:03.207Z,24.78
2023-05-19T10:39:35.500Z,24.85
2023-05-19T10:42:06.264Z,24.98
2023-05-19T10:44:41.902Z,25.08
2023-05-19T10:47:12.139Z,25.15
2023-05-19T10:49:41.728Z,25.17
2023-05-19T10:52:21.544Z,25.15
2023-05-19T10:54:49.663Z,25.12
2023-05-19T10:57:17.876Z,25.15
2023-05-19T10:59:45.862Z,25.16
2023-05-19T11:02:40.323Z,25.22
2023-05-19T11:05:14.621Z,25.22
2023-05-19T11:07:44.290Z,25.13
2023-05-19T11:10:12.802Z,24.98
2023-05-19T11:12:44.275Z,24.81
2023-05-19T11:15:14.596Z,24.69
2023-05-19T11:17:43.469Z,24.59
2023-05-19T11:20:22.806Z,24.45
2023-05-19T11:23:06.486Z,24.23
2023-05-19T11:25:44.647Z,24.03
2023-05-19T11:28:13.604Z,23.94
2023-05-19T11:30:42.711Z,23.91
2023-05-19T11:33:11.184Z,23.87
2023-05-19T11:35:41.131Z,23.83
2023-05-19T11:38:09.170Z,23.83
2023-05-19T11:40:37.237Z,23.84
2023-05-19T11:43:05.147Z,23.88
2023-05-19T11:45:34.308Z,23.95
2023-05-19T11:48:03.455Z,23.98
2023-05-19T11:50:32.111Z,24.01
2023-05-19T11:53:02.410Z,24.03
2023-05-19T11:55:31.265Z,24.09
2023-05-19T11:58:04.038Z,24.11
2023-05-19T12:00:37.757Z,24.22
2023-05-19T12:03:06.010Z,24.32
2023-05-19T12:05:37.946Z,24.29
2023-05-19T12:08:09.407Z,24.21
2023-05-19T12:10:37.471Z,24.20
2023-05-19T12:13:06.430Z,24.24
2023-05-19T12:15:34.625Z,24.35
2023-05-19T12:18:03.093Z,24.37
2023-05-19T12:20:32.671Z,24.38
2023-05-19T12:23:33.841Z,24.38
2023-05-19T12:26:01.948Z,24.31
2023-05-19T12:28:31.230Z,24.28
2023-05-19T12:30:59.203Z,24.23
2023-05-19T12:33:27.148Z,24.18
2023-05-19T12:35:55.358Z,24.17
2023-05-19T12:38:23.893Z,24.15
2023-05-19T12:40:53.299Z,24.16
2023-05-19T12:43:22.071Z,24.30
2023-05-19T12:45:50.123Z,24.52
2023-05-19T12:48:18.226Z,24.71
2023-05-19T12:50:46.346Z,24.88
2023-05-19T12:53:14.626Z,25.04
2023-05-19T12:55:43.788Z,25.08
2023-05-19T12:58:13.234Z,25.03
2023-05-19T13:00:45.733Z,24.96
2023-05-19T13:03:16.564Z,24.99
2023-05-19T13:05:46.516Z,25.09
2023-05-19T13:08:16.202Z,25.16
2023-05-19T13:10:46.317Z,25.13
2023-05-19T13:13:15.672Z,25.13
2023-05-19T13:15:44.504Z,25.14
2023-05-19T13:18:13.303Z,25.17
2023-05-19T13:20:42.364Z,25.14
2023-05-19T13:23:11.858Z,25.15
2023-05-19T13:25:39.853Z,25.16
2023-05-19T13:28:08.022Z,25.04
2023-05-19T13:30:38.649Z,25.02
2023-05-19T13:33:06.797Z,25.06
2023-05-19T13:35:37.575Z,25.09
2023-05-19T13:38:06.192Z,25.17
2023-05-19T13:40:34.949Z,25.18
2023-05-19T13:43:03.274Z,25.16
2023-05-19T13:45:31.210Z,25.07
2023-05-19T13:48:00.576Z,25.00
2023-05-19T13:50:28.622Z,24.98
2023-05-19T13:52:56.577Z,25.01
2023-05-19T13:55:26.318Z,25.10
2023-05-19T13:57:54.411Z,25.25
2023-05-19T14:00:22.564Z,25.29
2023-05-19T14:02:50.590Z,25.40
2023-05-19T14:05:20.668Z,25.45
2023-05-19T14:07:48.714Z,25.42
2023-05-19T14:10:16.684Z,25.59
2023-05-19T14:13:07.918Z,25.58
2023-05-19T14:15:34.631Z,25.57
2023-05-19T14:18:03.636Z,25.58
2023-05-19T14:20:34.252Z,25.64
2023-05-19T14:23:03.105Z,25.78
2023-05-19T14:25:31.122Z,25.87
2023-05-19T14:27:59.098Z,25.92
2023-05-19T14:30:27.216Z,25.98
2023-05-19T14:32:55.256Z,26.11
2023-05-19T14:35:23.809Z,26.17
2023-05-19T14:37:53.265Z,26.20
2023-05-19T14:40:21.188Z,26.16
2023-05-19T14:42:49.136Z,26.17
2023-05-19T14:45:17.360Z,26.30
2023-05-19T14:47:46.209Z,26.43
2023-05-19T14:50:15.494Z,26.69
2023-05-19T14:52:43.503Z,27.01
2023-05-19T14:55:12.740Z,27.52
2023-05-19T14:57:40.846Z,27.97
2023-05-19T15:00:10.374Z,28.23
2023-05-19T15:02:38.413Z,28.39
2023-05-19T15:05:06.940Z,28.41
2023-05-19T15:07:34.977Z,28.41
2023-05-19T15:10:03.113Z,28.48
2023-05-19T15:12:32.468Z,28.57
2023-05-19T15:15:00.638Z,28.53
2023-05-19T15:17:28.636Z,28.45
2023-05-19T15:19:56.671Z,28.32
2023-05-19T15:22:24.664Z,28.19
2023-05-19T15:24:52.590Z,28.03
2023-05-19T15:27:20.858Z,27.77
2023-05-19T15:29:50.162Z,27.46
2023-05-19T15:32:18.372Z,27.20
2023-05-19T15:34:46.325Z,26.93
2023-05-19T15:37:14.291Z,26.65
2023-05-19T15:39:42.236Z,26.24
2023-05-19T15:42:10.250Z,25.86
2023-05-19T15:44:38.581Z,25.60
2023-05-19T15:47:07.991Z,25.49
2023-05-19T15:49:35.967Z,25.52
2023-05-19T15:52:04.530Z,25.67
2023-05-19T15:54:32.498Z,25.84
2023-05-19T15:57:00.409Z,26.43
2023-05-19T15:59:28.331Z,26.98
2023-05-19T16:01:56.258Z,27.40
2023-05-19T16:04:25.634Z,27.52
2023-05-19T16:06:53.537Z,27.35
2023-05-19T16:09:21.579Z,27.18
2023-05-19T16:11:49.708Z,27.16
2023-05-19T16:14:17.679Z,27.44
2023-05-19T16:16:45.935Z,27.81
2023-05-19T16:19:14.118Z,28.22
2023-05-19T16:21:43.705Z,28.68
2023-05-19T16:24:11.721Z,28.95
2023-05-19T16:26:39.687Z,29.10
2023-05-19T16:29:07.593Z,29.25
2023-05-19T16:31:35.687Z,29.38
2023-05-19T16:34:03.723Z,29.32
2023-05-19T16:36:31.870Z,29.19
2023-05-19T16:39:01.287Z,28.99
2023-05-19T16:41:29.234Z,28.69
2023-05-19T16:43:57.181Z,28.45
2023-05-19T16:46:25.375Z,28.09
2023-05-19T16:48:53.643Z,27.70
2023-05-19T16:51:21.901Z,27.30
2023-05-19T16:53:49.941Z,26.92
2023-05-19T16:56:19.260Z,26.75
2023-05-19T16:58:47.391Z,26.55
2023-05-19T17:01:15.344Z,26.35
2023-05-19T17:03:43.629Z,26.31
2023-05-19T17:06:11.618Z,26.41
2023-05-19T17:08:39.478Z,26.54
2023-05-19T17:11:07.584Z,26.72
2023-05-19T17:13:37.229Z,27.02
2023-05-19T17:16:05.305Z,27.12
2023-05-19T17:18:33.929Z,26.77
2023-05-19T17:21:04.047Z,26.28
2023-05-19T17:23:32.294Z,25.68
2023-05-19T17:26:00.336Z,25.12
2023-05-19T17:28:28.432Z,24.71
2023-05-19T17:30:57.801Z,24.42
2023-05-19T17:33:25.900Z,24.21
2023-05-19T17:35:53.920Z,24.14
2023-05-19T17:38:21.884Z,24.12
2023-05-19T17:40:49.755Z,24.06
2023-05-19T17:43:17.673Z,23.92
2023-05-19T17:45:45.544Z,23.76
2023-05-19T17:48:14.986Z,23.69
2023-05-19T17:50:42.886Z,23.87
2023-05-19T17:53:11.390Z,24.10
2023-05-19T17:55:39.948Z,24.47
2023-05-19T17:58:08.408Z,24.68
2023-05-19T18:00:36.925Z,24.72
2023-05-19T18:03:06.284Z,24.70
2023-05-19T18:05:37.491Z,24.61
2023-05-19T18:08:07.157Z,24.54
2023-05-19T18:10:37.030Z,24.55
2023-05-19T18:13:05.071Z,24.68
2023-05-19T18:15:33.006Z,24.85
2023-05-19T18:18:01.139Z,25.03
2023-05-19T18:20:30.964Z,25.26
2023-05-19T18:23:00.954Z,25.54
2023-05-19T18:25:28.972Z,25.68
2023-05-19T18:27:56.883Z,25.44
2023-05-19T18:30:24.833Z,25.00
2023-05-19T18:32:52.774Z,24.55
2023-05-19T18:35:21.314Z,24.15
2023-05-19T18:37:49.303Z,23.71
2023-05-19T18:40:18.805Z,23.41
2023-05-19T18:42:47.849Z,23.19
2023-05-19T18:45:16.097Z,23.01
2023-05-19T18:47:44.035Z,22.87
2023-05-19T18:50:12.120Z,22.81
2023-05-19T18:52:40.119Z,22.74
2023-05-19T18:55:08.929Z,22.69
2023-05-19T18:57:38.205Z,22.69
2023-05-19T19:00:07.243Z,22.71
2023-05-19T19:02:35.173Z,22.72
2023-05-19T19:05:04.093Z,22.69
2023-05-19T19:07:32.104Z,22.66
2023-05-19T19:10:00.008Z,22.61
2023-05-19T19:12:27.909Z,22.52
2023-05-19T19:14:57.296Z,22.35
2023-05-19T19:17:25.326Z,22.22
2023-05-19T19:19:53.525Z,22.10
2023-05-19T19:22:21.567Z,22.01
2023-05-19T19:24:49.628Z,21.91
2023-05-19T19:27:17.758Z,21.79
2023-05-19T19:29:45.928Z,21.72
2023-05-19T19:32:15.245Z,21.60
2023-05-19T19:34:43.325Z,21.52
2023-05-19T19:37:11.355Z,21.43
2023-05-19T19:39:39.519Z,21.36
2023-05-19T19:42:07.499Z,21.30
2023-05-19T19:44:35.496Z,21.25
2023-05-19T19:47:06.086Z,21.20
2023-05-19T19:49:35.612Z,21.16
2023-05-19T19:52:03.672Z,21.14
2023-05-19T19:54:31.551Z,21.02
2023-05-19T19:56:59.551Z,20.90
2023-05-19T19:59:27.621Z,20.84
2023-05-19T20:01:55.753Z,20.71
2023-05-19T20:04:23.928Z,20.60
2023-05-19T20:06:53.554Z,20.47
2023-05-19T20:09:22.013Z,20.36
2023-05-19T20:11:49.949Z,20.32
2023-05-19T20:14:18.892Z,20.24
2023-05-19T20:16:47.170Z,20.22
2023-05-19T20:19:15.357Z,20.20
2023-05-19T20:21:43.584Z,20.12
2023-05-19T20:24:13.079Z,20.04
2023-05-19T20:26:41.333Z,19.96
2023-05-19T20:29:09.252Z,19.91
2023-05-19T20:31:37.343Z,19.79
2023-05-19T20:34:05.602Z,19.68
2023-05-19T20:36:33.555Z,19.58
2023-05-19T20:39:01.447Z,19.52
2023-05-19T20:41:31.394Z,19.46
2023-05-19T20:43:59.286Z,19.42
2023-05-19T20:46:27.278Z,19.41
2023-05-19T20:48:55.422Z,19.37
2023-05-19T20:51:25.192Z,19.36
2023-05-19T20:53:53.090Z,19.34
2023-05-19T20:56:22.490Z,19.34
2023-05-19T20:58:51.932Z,19.32
2023-05-19T21:01:19.925Z,19.29
2023-05-19T21:03:47.954Z,19.28
2023-05-19T21:06:16.081Z,19.25
2023-05-19T21:08:44.002Z,19.23
2023-05-19T21:11:11.900Z,19.23
2023-05-19T21:13:39.877Z,19.25
2023-05-19T21:16:09.359Z,19.23
2023-05-19T21:18:37.285Z,19.19
2023-05-19T21:21:05.479Z,19.22
2023-05-19T21:23:33.775Z,19.20
2023-05-19T21:26:01.653Z,19.22
2023-05-19T21:28:29.553Z,19.20
2023-05-19T21:30:57.494Z,19.17
2023-05-19T21:33:26.919Z,19.16
2023-05-19T21:35:54.940Z,19.13
2023-05-19T21:38:24.318Z,19.16
2023-05-19T21:40:52.854Z,19.21
2023-05-19T21:43:21.803Z,19.24
2023-05-19T21:45:49.779Z,19.24
2023-05-19T21:48:17.782Z,19.25
2023-05-19T21:50:47.132Z,19.23
2023-05-19T21:53:15.147Z,19.25
2023-05-19T21:55:43.051Z,19.27
2023-05-19T21:58:11.141Z,19.32
2023-05-19T22:00:39.119Z,19.38
2023-05-19T22:03:07.366Z,19.43
2023-05-19T22:05:38.074Z,19.45
2023-05-19T22:08:07.600Z,19.45
2023-05-19T22:10:37.361Z,19.43
2023-05-19T22:13:05.517Z,19.46
2023-05-19T22:15:33.454Z,19.51
2023-05-19T22:18:01.629Z,19.57
2023-05-19T22:20:29.837Z,19.60
2023-05-19T22:22:59.491Z,19.64
2023-05-19T22:25:29.269Z,19.64
2023-05-19T22:28:01.418Z,19.65
2023-05-19T22:30:30.472Z,19.69
2023-05-19T22:33:01.166Z,19.68
2023-05-19T22:35:29.411Z,19.63
2023-05-19T22:37:57.296Z,19.59
2023-05-19T22:40:25.272Z,19.54
2023-05-19T22:42:54.533Z,19.51
2023-05-19T22:45:22.767Z,19.49
2023-05-19T22:47:51.242Z,19.46
2023-05-19T22:50:19.284Z,19.38
2023-05-19T22:52:47.233Z,19.24
2023-05-19T22:55:15.176Z,19.12
2023-05-19T22:57:43.061Z,18.98
2023-05-19T23:00:14.134Z,18.85
2023-05-19T23:02:42.483Z,18.73
2023-05-19T23:05:10.665Z,18.63
2023-05-19T23:07:38.571Z,18.58
2023-05-19T23:10:07.582Z,18.57
2023-05-19T23:12:35.787Z,18.58
2023-05-19T23:15:03.833Z,18.62
2023-05-19T23:17:33.232Z,18.66
2023-05-19T23:20:01.264Z,18.72
2023-05-19T23:22:29.156Z,18.75
2023-05-19T23:24:57.056Z,18.83
2023-05-19T23:27:25.205Z,18.92
2023-05-19T23:29:53.598Z,18.96
2023-05-19T23:32:21.447Z,19.01
2023-05-19T23:34:50.724Z,19.05
2023-05-19T23:37:18.628Z,19.06
2023-05-19T23:39:46.516Z,19.03
2023-05-19T23:42:14.388Z,19.00
2023-05-19T23:44:42.364Z,18.93
2023-05-19T23:47:10.271Z,18.87
2023-05-19T23:49:38.199Z,18.78
2023-05-19T23:52:08.009Z,18.76
2023-05-19T23:54:35.911Z,18.70
2023-05-19T23:57:04.194Z,18.68
2023-05-19T23:59:32.098Z,18.62
